»·PEaware :: N252RK KEGE-KAPA

N252RK :: KEGE-KAPA

FLIGHT INFORMATION

Flight Status: Arrived
Operator: Privately registered:
United States
More flights under this callsign
Pilot: Ryan K. (5639)
Aircraft: PIPER PA-46-310/350P MALIBU MIRAGE
(PA46)
More flights by this aircraft type
Origin: KEGE Eagle Co Regl
United States
Destination: KAPA Centennial
United States
More flights between these airports :: More routes between these airports
Route: GYPSM5 RLG TOMSN6
File this flight plan on PilotEdge
Remarks:
Altitude:
(Current/Filed)
17,000ft
Speed:
(Current/Filed)
210kts
Departed: 15-Oct-17 04:09 PM
Arrived: 15-Oct-17 04:56 PM
Distance/Time
Traveled:
96nm/0:46
Distance/Time
To Go:
Arrived

Flight Plot

Page will automatically refresh every two minutes.


Map Options




Map Legend


Flown Route
Filed Route
Departure Airport
Arrival Airport
Navaid (VOR, NDB)
Fix

Horizontal Profiles

Position Reports

Time Latitude Longitude Heading Altitude Ground
Speed
15-Oct-17 15:53 39.641316 -106.912179 86 6549ft 0kts
15-Oct-17 15:54 39.641316 -106.912179 86 6549ft 0kts
15-Oct-17 15:55 39.641316 -106.912179 86 6549ft 0kts
15-Oct-17 15:56 39.641316 -106.912179 86 6549ft 0kts
15-Oct-17 15:57 39.641316 -106.912179 86 6549ft 0kts
15-Oct-17 15:58 39.641316 -106.912179 86 6549ft 0kts
15-Oct-17 15:59 39.641316 -106.912179 86 6549ft 0kts
15-Oct-17 16:00 39.641316 -106.912179 86 6549ft 0kts
15-Oct-17 16:01 39.641316 -106.912179 86 6549ft 0kts
15-Oct-17 16:02 39.641316 -106.912179 86 6549ft 0kts
15-Oct-17 16:03 39.641316 -106.912179 86 6549ft 0kts
15-Oct-17 16:04 39.641316 -106.912179 87 6549ft 0kts
15-Oct-17 16:05 39.641316 -106.912179 87 6549ft 0kts
15-Oct-17 16:06 39.641411 -106.912106 353 6549ft 0kts
15-Oct-17 16:07 39.641410 -106.913103 261 6549ft 14kts
15-Oct-17 16:08 39.641586 -106.917484 262 6549ft 18kts
15-Oct-17 16:09 39.640824 -106.924474 262 6549ft 20kts
15-Oct-17 16:11 39.640056 -106.931205 263 6549ft 15kts
15-Oct-17 16:12 39.639873 -106.932913 290 6549ft 0kts
15-Oct-17 16:13 39.641005 -106.933157 81 6549ft 0kts
15-Oct-17 16:14 39.643643 -106.907757 80 7173ft 115kts
15-Oct-17 16:15 39.649673 -106.864389 75 8670ft 133kts
15-Oct-17 16:16 39.657165 -106.813064 76 9986ft 154kts
15-Oct-17 16:17 39.665832 -106.757379 79 11398ft 163kts
15-Oct-17 16:18 39.685469 -106.707093 26 12744ft 164kts
15-Oct-17 16:19 39.723669 -106.674882 26 14141ft 166kts
15-Oct-17 16:20 39.764290 -106.642073 26 15008ft 197kts
15-Oct-17 16:21 39.814523 -106.601789 26 15008ft 221kts
15-Oct-17 16:22 39.867431 -106.558751 25 14967ft 228kts
15-Oct-17 16:23 39.917729 -106.512710 30 15920ft 197kts
15-Oct-17 16:24 39.960938 -106.474383 20 16979ft 204kts
15-Oct-17 16:25 40.013431 -106.435436 31 17052ft 228kts
15-Oct-17 16:26 40.063896 -106.381989 31 16992ft 236kts
15-Oct-17 16:27 40.113143 -106.327503 33 17037ft 236kts
15-Oct-17 16:28 40.162515 -106.270149 35 17023ft 239kts
15-Oct-17 16:29 40.212958 -106.214650 32 17122ft 236kts
15-Oct-17 16:30 40.265128 -106.162592 30 17162ft 235kts
15-Oct-17 16:31 40.319010 -106.115099 29 17232ft 234kts
15-Oct-17 16:32 40.369757 -106.058542 37 17137ft 243kts
15-Oct-17 16:33 40.418830 -105.998759 37 17162ft 241kts
15-Oct-17 16:34 40.469050 -105.939679 34 17081ft 242kts
15-Oct-17 16:35 40.515669 -105.877804 64 17146ft 249kts
15-Oct-17 16:36 40.523410 -105.786192 81 17134ft 253kts
15-Oct-17 16:37 40.528953 -105.693900 82 17155ft 254kts
15-Oct-17 16:38 40.507050 -105.610610 136 17107ft 251kts
15-Oct-17 16:39 40.456185 -105.547396 143 17086ft 250kts
15-Oct-17 16:40 40.402542 -105.489818 142 17053ft 245kts
15-Oct-17 16:41 40.352500 -105.427440 120 16077ft 254kts
15-Oct-17 16:42 40.320520 -105.346664 117 15057ft 250kts
15-Oct-17 16:43 40.287983 -105.268380 118 14167ft 239kts
15-Oct-17 16:44 40.257151 -105.192519 118 13013ft 233kts
15-Oct-17 16:45 40.226549 -105.118957 121 11893ft 227kts
15-Oct-17 16:46 40.188127 -105.057583 130 10989ft 216kts
15-Oct-17 16:47 40.155724 -104.991581 129 9844ft 218kts
15-Oct-17 16:48 40.122730 -104.927457 119 8878ft 213kts
15-Oct-17 16:49 40.094338 -104.860826 116 8067ft 208kts
15-Oct-17 16:50 40.069241 -104.794463 117 8223ft 201kts
15-Oct-17 16:51 40.030374 -104.742446 175 8094ft 214kts
15-Oct-17 16:52 39.970162 -104.737738 181 8001ft 216kts
15-Oct-17 16:53 39.910318 -104.737445 181 7986ft 216kts
15-Oct-17 16:54 39.850555 -104.738368 182 7991ft 215kts
15-Oct-17 16:55 39.791016 -104.741468 183 7964ft 215kts
15-Oct-17 16:56 39.732637 -104.753736 201 7987ft 212kts
15-Oct-17 16:57 39.689068 -104.796618 232 7946ft 176kts
15-Oct-17 16:58 39.659955 -104.837150 231 7518ft 134kts
15-Oct-17 16:59 39.628286 -104.853215 176 6822ft 127kts
15-Oct-17 17:00 39.594063 -104.851988 179 6090ft 117kts
15-Oct-17 17:01 39.574297 -104.850257 89 5825ft 11kts
15-Oct-17 17:02 39.574192 -104.849460 129 5824ft 6kts
15-Oct-17 17:03 39.573980 -104.844227 87 5824ft 17kts
15-Oct-17 17:04 39.573733 -104.839409 85 5825ft 10kts
15-Oct-17 17:05 39.573964 -104.839450 263 5825ft 0kts

Navigation Log

Ident Type
Flight plan parsing failed, navigation log unavailable